Time;durP1;ratioP1;P1;durP2;ratioP2;P2;SDS_P1;SDS_P2;PMS_P1;PMS_P2;Temp;Humidity;BMP_temperature;BMP_pressure;BME280_temperature;BME280_humidity;BME280_pressure;Samples;Min_cycle;Max_cycle;Signal;HPM_P1;HPM_P2
2021/04/11 00:18:38;;;;;;;13.90;4.32;;;12.20;99.90;;;;;;4951211;29;20104;-82
2021/04/11 00:21:41;;;;;;;;;;;;;;;;;;;;;
2021/04/11 01:53:50;;;;;;;15.20;4.57;;;12.20;99.90;;;;;;4869591;29;20032;-82
2021/04/11 02:59:02;;;;;;;19.55;4.20;;;12.10;99.90;;;;;;4928755;29;20076;-82
2021/04/11 03:54:14;;;;;;;;;;;;;;;;;;;;;
2021/04/11 04:24:39;;;;;;;9.30;4.60;;;11.80;99.90;;;;;;5025857;28;20093;-82
2021/04/11 04:27:44;;;;;;;16.30;4.80;;;11.90;99.90;;;;;;5025699;28;20116;-83
2021/04/11 07:59:33;;;;;;;14.02;7.07;;;11.60;99.90;;;;;;4917620;29;20175;-82
2021/04/11 08:09:58;;;;;;;;;;;;;;;;;;;;;
2021/04/11 08:15:56;;;;;;;20.27;9.55;;;11.70;99.90;;;;;;4856506;29;20422;-84
2021/04/11 08:19:12;;;;;;;19.38;7.88;;;11.80;99.90;;;;;;4911444;29;20526;-79
2021/04/11 08:25:25;;;;;;;19.08;9.13;;;11.80;99.90;;;;;;5010973;28;20048;-76
2021/04/11 08:28:28;;;;;;;23.55;10.60;;;11.90;99.90;;;;;;5036400;28;20038;-83
2021/04/11 08:31:07;;;;;;;23.58;8.00;;;;;;;;;;5032471;28;20032;-83
2021/04/11 08:34:13;;;;;;;33.78;10.63;;;11.90;99.90;;;;;;5033747;28;20029;-84
2021/04/11 08:36:41;;;;;;;33.22;14.85;;;12.10;99.90;;;;;;5035184;28;20042;-82
2021/04/11 08:46:16;;;;;;;115.90;50.30;;;12.30;99.90;;;;;;5042832;28;20087;-84
2021/04/11 08:48:52;;;;;;;23.90;11.38;;;12.40;99.90;;;;;;5037731;28;20063;-85
2021/04/11 08:51:38;;;;;;;12.48;5.47;;;12.50;99.90;;;;;;5047417;28;20057;-86
2021/04/11 08:54:10;;;;;;;15.57;8.38;;;12.50;99.90;;;;;;5028033;28;20068;-81
2021/04/11 08:56:49;;;;;;;;;;;12.50;99.90;;;;;;5031230;28;20030;-87
2021/04/11 08:59:27;;;;;;;16.30;10.10;;;12.60;99.90;;;;;;5033122;28;19905;-90
2021/04/11 09:02:21;;;;;;;6.80;3.90;;;12.50;99.90;;;;;;5036603;28;20516;-80
2021/04/11 09:05:12;;;;;;;16.92;7.32;;;12.50;99.90;;;;;;5030477;28;20037;-82
2021/04/11 09:07:38;;;;;;;15.05;6.65;;;12.40;99.90;;;;;;5034644;28;20079;-81
2021/04/11 09:10:11;;;;;;;9.57;4.28;;;12.40;99.90;;;;;;5041097;28;20064;-87
2021/04/11 09:12:56;;;;;;;8.77;5.13;;;12.40;99.90;;;;;;5039562;28;20378;-81
2021/04/11 09:15:55;;;;;;;16.45;7.38;;;12.40;99.90;;;;;;5033926;28;20037;-91
2021/04/11 09:18:36;;;;;;;10.73;5.43;;;12.40;99.90;;;;;;5033671;28;20048;-83
2021/04/11 09:21:40;;;;;;;8.40;4.30;;;12.50;99.90;;;;;;5029148;28;20037;-87
2021/04/11 09:24:35;;;;;;;15.32;4.05;;;12.50;99.90;;;;;;5030224;28;20077;-85
2021/04/11 09:27:41;;;;;;;10.73;4.20;;;12.50;99.90;;;;;;4998951;28;20164;-88
2021/04/11 09:30:42;;;;;;;8.60;4.03;;;12.50;99.90;;;;;;5029838;28;20038;-82
2021/04/11 09:33:33;;;;;;;11.95;4.57;;;12.50;99.90;;;;;;5028046;28;20029;-81
2021/04/11 09:36:24;;;;;;;8.70;3.88;;;12.40;99.90;;;;;;5021867;28;20034;-86
2021/04/11 09:39:20;;;;;;;14.15;4.32;;;12.40;99.90;;;;;;5027546;28;20033;-82
2021/04/11 09:42:24;;;;;;;11.27;4.50;;;12.50;99.90;;;;;;5030617;28;20033;-87
2021/04/11 09:45:11;;;;;;;11.13;4.20;;;12.50;99.90;;;;;;5041777;28;20018;-82
2021/04/11 09:47:58;;;;;;;9.25;3.65;;;12.50;99.90;;;;;;5049567;28;20037;-84
2021/04/11 09:50:59;;;;;;;9.82;4.07;;;12.40;99.90;;;;;;5047019;28;20101;-86
2021/04/11 09:54:03;;;;;;;11.35;4.15;;;12.50;99.90;;;;;;5026657;28;20033;-82
2021/04/11 09:56:47;;;;;;;34.10;20.25;;;12.50;99.90;;;;;;5050212;28;20039;-82
2021/04/11 09:59:36;;;;;;;11.90;4.97;;;12.40;99.90;;;;;;5046004;28;20174;-82
2021/04/11 10:02:14;;;;;;;9.07;4.55;;;12.40;99.90;;;;;;5056246;28;20040;-86
2021/04/11 10:05:03;;;;;;;23.58;15.02;;;12.40;99.90;;;;;;5057079;28;20040;-83
2021/04/11 10:07:41;;;;;;;12.10;6.95;;;12.30;99.90;;;;;;5052829;28;20037;-82
2021/04/11 10:10:44;;;;;;;9.35;5.43;;;12.30;99.90;;;;;;5053138;28;20045;-83
2021/04/11 10:13:49;;;;;;;12.30;5.68;;;12.30;99.90;;;;;;5054941;28;20041;-82
2021/04/11 10:16:56;;;;;;;7.95;4.47;;;12.20;99.90;;;;;;5046211;28;20025;-83
2021/04/11 10:19:32;;;;;;;5.85;3.75;;;12.20;99.90;;;;;;5027360;28;20090;-84
2021/04/11 10:22:26;;;;;;;11.77;6.85;;;12.10;99.90;;;;;;5048870;28;20026;-90
2021/04/11 10:25:06;;;;;;;9.82;5.88;;;12.20;99.90;;;;;;5041301;28;20033;-87
2021/04/11 10:30:42;;;;;;;7.15;4.15;;;12.10;99.90;;;;;;5052080;28;20055;-85
2021/04/11 10:33:25;;;;;;;17.63;11.20;;;12.00;99.90;;;;;;5055554;28;20036;-85
2021/04/11 10:36:17;;;;;;;10.50;5.28;;;12.10;99.90;;;;;;5050801;28;20029;-86
2021/04/11 10:38:52;;;;;;;11.63;5.47;;;12.00;99.90;;;;;;5051092;28;20233;-82
2021/04/11 10:41:45;;;;;;;9.55;4.05;;;12.00;99.90;;;;;;5048819;28;20041;-85
2021/04/11 10:44:32;;;;;;;6.03;3.72;;;12.00;99.90;;;;;;5063467;28;20037;-82
2021/04/11 10:47:35;;;;;;;11.27;4.10;;;12.00;99.90;;;;;;5061699;28;20134;-84
2021/04/11 10:50:16;;;;;;;12.93;5.60;;;11.90;99.90;;;;;;5071282;28;20108;-85
2021/04/11 10:53:23;;;;;;;9.63;4.10;;;12.00;99.90;;;;;;5060764;28;20043;-81
2021/04/11 10:56:07;;;;;;;5.25;3.30;;;12.00;99.90;;;;;;5041643;28;20044;-80
2021/04/11 10:59:03;;;;;;;14.75;3.80;;;11.90;99.90;;;;;;5075449;28;20024;-80
2021/04/11 11:02:03;;;;;;;14.55;5.80;;;11.90;99.90;;;;;;5071080;28;20111;-80
2021/04/11 11:04:50;;;;;;;14.75;6.63;;;11.90;99.90;;;;;;5071789;28;20043;-81
2021/04/11 11:07:20;;;;;;;9.60;4.63;;;11.90;99.90;;;;;;5068331;28;20036;-81
2021/04/11 11:10:07;;;;;;;7.70;3.30;;;12.00;99.90;;;;;;5073776;28;20104;-81
2021/04/11 11:12:58;;;;;;;8.48;3.83;;;12.00;99.90;;;;;;5075735;28;20056;-82
2021/04/11 11:16:09;;;;;;;10.82;5.05;;;12.00;99.90;;;;;;5074319;28;20041;-81
2021/04/11 11:19:00;;;;;;;9.18;4.57;;;12.10;99.90;;;;;;5043931;28;20059;-83
2021/04/11 11:21:36;;;;;;;6.32;3.88;;;12.10;99.90;;;;;;5080015;28;20086;-84
2021/04/11 11:24:33;;;;;;;29.38;12.07;;;12.10;99.90;;;;;;5072984;28;20427;-83
2021/04/11 11:27:29;;;;;;;11.43;5.57;;;12.10;99.90;;;;;;5071098;28;20097;-80
2021/04/11 11:30:26;;;;;;;12.60;5.88;;;12.10;99.90;;;;;;5075822;28;20051;-81
2021/04/11 11:33:37;;;;;;;14.20;7.50;;;12.10;99.90;;;;;;5066801;28;20459;-81
2021/04/11 11:36:08;;;;;;;14.10;4.82;;;12.10;99.90;;;;;;5052526;28;20048;-80
2021/04/11 11:39:01;;;;;;;12.80;7.25;;;12.10;99.90;;;;;;5070253;28;20106;-82
2021/04/11 11:41:39;;;;;;;11.63;5.13;;;12.10;99.90;;;;;;5070748;28;20041;-80
2021/04/11 11:44:22;;;;;;;11.07;3.92;;;12.10;99.90;;;;;;5068467;28;20028;-81
2021/04/11 11:47:02;;;;;;;6.95;3.63;;;12.20;99.90;;;;;;5073300;28;20190;-81
2021/04/11 11:49:49;;;;;;;10.07;4.38;;;12.20;99.90;;;;;;5077704;28;20119;-81
2021/04/11 11:52:27;;;;;;;11.20;3.97;;;12.20;99.90;;;;;;5074013;28;20542;-82
2021/04/11 11:55:05;;;;;;;9.68;4.25;;;12.20;99.90;;;;;;5070224;28;20048;-93
2021/04/11 11:57:51;;;;;;;11.07;4.22;;;12.20;99.90;;;;;;5070717;28;20086;-82
2021/04/11 12:00:30;;;;;;;11.27;4.82;;;12.20;99.90;;;;;;5069506;28;20033;-81
2021/04/11 12:03:26;;;;;;;12.38;4.63;;;12.20;99.90;;;;;;5074484;28;20097;-85
2021/04/11 12:06:12;;;;;;;16.23;4.88;;;12.20;99.90;;;;;;5062363;28;20047;-84
2021/04/11 12:09:05;;;;;;;12.48;4.55;;;12.20;99.90;;;;;;5058455;28;20024;-83
2021/04/11 12:11:46;;;;;;;16.73;4.60;;;12.30;99.90;;;;;;5071176;28;20070;-83
2021/04/11 12:18:13;;;;;;;17.30;5.10;;;12.30;99.90;;;;;;5071748;28;20031;-85
2021/04/11 12:21:05;;;;;;;16.60;4.20;;;12.30;99.90;;;;;;5069317;28;20275;-86
2021/04/11 12:24:24;;;;;;;18.52;4.70;;;12.40;99.90;;;;;;5072882;28;20029;-84
2021/04/11 12:26:58;;;;;;;20.30;5.75;;;12.40;99.90;;;;;;5072309;28;20089;-92
2021/04/11 12:29:41;;;;;;;14.82;4.40;;;12.50;99.90;;;;;;5078513;28;20024;-83
2021/04/11 12:32:37;;;;;;;14.07;4.07;;;12.50;99.90;;;;;;5072871;28;20041;-88
2021/04/11 12:35:22;;;;;;;17.17;5.60;;;12.50;99.90;;;;;;5075834;28;20119;-88
2021/04/11 12:38:19;;;;;;;16.00;4.78;;;12.50;99.90;;;;;;5069384;28;20036;-91
2021/04/11 12:41:02;;;;;;;11.75;4.45;;;12.60;99.90;;;;;;5070638;28;20029;-92
2021/04/11 12:43:53;;;;;;;16.23;5.90;;;12.60;99.90;;;;;;5066102;28;20045;-94
2021/04/11 12:46:48;;;;;;;16.55;4.43;;;12.60;99.90;;;;;;5067978;28;20041;-84
2021/04/11 12:49:49;;;;;;;21.17;4.35;;;12.60;99.90;;;;;;5071381;28;20040;-82
2021/04/11 12:52:33;;;;;;;13.60;5.20;;;12.70;99.90;;;;;;5068834;28;20033;-86
2021/04/11 12:55:20;;;;;;;117.55;55.17;;;12.70;99.90;;;;;;5071704;28;20029;-92
2021/04/11 12:58:34;;;;;;;;;;;;;;;;;;;;;
2021/04/11 13:01:06;;;;;;;21.15;9.77;;;12.70;99.90;;;;;;5073121;28;20030;-93
2021/04/11 13:03:38;;;;;;;17.40;6.07;;;12.70;99.90;;;;;;5067838;28;20037;-83
2021/04/11 13:06:16;;;;;;;;;;;12.70;99.90;;;;;;5058302;28;20043;-83
2021/04/11 13:09:09;;;;;;;23.83;5.47;;;12.70;99.90;;;;;;5056294;28;19992;-83
2021/04/11 13:11:43;;;;;;;27.65;10.07;;;12.80;99.90;;;;;;5066946;28;20033;-86
2021/04/11 13:14:19;;;;;;;18.95;5.32;;;12.80;99.90;;;;;;5064707;28;20027;-84
2021/04/11 13:17:09;;;;;;;28.45;5.47;;;12.80;99.90;;;;;;5073975;28;20033;-83
2021/04/11 13:19:42;;;;;;;21.88;5.50;;;12.90;99.90;;;;;;5073945;28;20111;-91
2021/04/11 13:22:25;;;;;;;19.35;5.65;;;13.00;99.90;;;;;;5076108;28;20141;-92
2021/04/11 13:25:23;;;;;;;18.30;4.65;;;13.00;99.90;;;;;;5075597;28;20040;-92
2021/04/11 13:28:09;;;;;;;17.48;5.15;;;13.00;99.90;;;;;;5062472;28;20041;-87
2021/04/11 13:31:21;;;;;;;14.25;5.43;;;13.10;99.90;;;;;;5075851;28;20407;-83
2021/04/11 13:34:06;;;;;;;24.23;4.75;;;13.00;99.90;;;;;;5047390;28;20056;-83
2021/04/11 13:37:00;;;;;;;10.75;4.43;;;13.10;99.90;;;;;;5065882;28;20036;-83
2021/04/11 13:39:34;;;;;;;17.83;5.32;;;13.00;99.90;;;;;;5067531;28;20025;-89
2021/04/11 13:42:42;;;;;;;31.23;6.55;;;13.00;99.90;;;;;;5048130;28;20120;-83
2021/04/11 13:45:08;;;;;;;20.48;5.78;;;13.00;99.90;;;;;;5066054;28;20033;-88
2021/04/11 13:48:06;;;;;;;14.82;4.53;;;13.00;99.90;;;;;;5069497;28;20115;-85
2021/04/11 13:51:04;;;;;;;18.98;4.95;;;13.00;99.90;;;;;;5079013;28;20031;-86
2021/04/11 13:54:07;;;;;;;19.08;5.38;;;13.00;99.90;;;;;;5065030;28;20037;-83
2021/04/11 13:56:51;;;;;;;28.33;6.13;;;13.00;99.90;;;;;;5074642;28;20036;-89
2021/04/11 13:59:35;;;;;;;25.90;5.05;;;13.00;99.90;;;;;;5071066;28;20028;-83
2021/04/11 14:02:45;;;;;;;26.27;5.35;;;13.00;99.90;;;;;;5072274;28;20079;-83
2021/04/11 14:05:50;;;;;;;20.65;5.00;;;13.00;99.90;;;;;;4996299;28;20069;-83
2021/04/11 14:08:28;;;;;;;22.45;5.65;;;13.00;99.90;;;;;;5041356;28;20476;-92
2021/04/11 14:11:18;;;;;;;20.70;5.18;;;13.00;99.90;;;;;;5072540;28;20043;-91
2021/04/11 14:13:54;;;;;;;22.13;5.82;;;13.00;99.90;;;;;;5069718;28;20028;-84
2021/04/11 14:16:25;;;;;;;18.02;4.78;;;13.00;99.90;;;;;;5077245;28;20055;-90
2021/04/11 14:19:18;;;;;;;26.17;5.80;;;13.00;99.90;;;;;;5072904;28;20028;-89
2021/04/11 14:22:05;;;;;;;17.50;4.65;;;13.00;99.90;;;;;;5081319;28;20032;-85
2021/04/11 14:24:56;;;;;;;20.70;5.38;;;13.00;99.90;;;;;;5077211;28;20170;-93
2021/04/11 14:27:39;;;;;;;27.65;7.15;;;13.00;99.90;;;;;;5071186;28;20087;-83
2021/04/11 14:30:46;;;;;;;18.23;6.43;;;13.10;99.90;;;;;;5072535;28;20116;-82
2021/04/11 14:33:25;;;;;;;30.42;5.20;;;13.10;99.90;;;;;;4993727;28;20513;-83
2021/04/11 14:36:11;;;;;;;27.55;5.78;;;13.10;99.90;;;;;;5067507;28;20039;-90
2021/04/11 14:39:01;;;;;;;25.80;6.13;;;13.10;99.90;;;;;;5066603;28;20098;-88
2021/04/11 14:41:40;;;;;;;28.02;6.00;;;13.10;99.90;;;;;;5061655;28;20098;-90
2021/04/11 14:44:08;;;;;;;25.73;5.80;;;13.10;99.90;;;;;;5061265;28;20089;-85
2021/04/11 14:46:53;;;;;;;32.38;6.75;;;13.20;99.90;;;;;;5068035;28;20045;-87
2021/04/11 14:49:25;;;;;;;27.50;6.13;;;13.10;99.90;;;;;;5049556;28;20399;-84
2021/04/11 14:52:18;;;;;;;24.73;6.10;;;13.20;99.90;;;;;;5085755;28;20036;-85
2021/04/11 14:55:10;;;;;;;165.52;70.10;;;13.20;99.90;;;;;;5059013;28;20025;-83
2021/04/11 14:57:36;;;;;;;45.97;15.02;;;13.30;99.90;;;;;;5072601;28;20039;-86
2021/04/11 15:00:05;;;;;;;39.65;11.68;;;13.30;99.90;;;;;;5073860;28;20103;-82
2021/04/11 15:02:34;;;;;;;38.15;8.30;;;13.30;99.90;;;;;;5074552;28;20032;-84
2021/04/11 15:05:08;;;;;;;33.00;9.73;;;13.30;99.90;;;;;;5072319;28;20029;-89
2021/04/11 15:08:31;;;;;;;26.48;6.20;;;13.30;99.90;;;;;;5060547;28;20040;-85
2021/04/11 15:11:25;;;;;;;21.10;5.35;;;13.30;99.90;;;;;;4973296;28;20047;-85
2021/04/11 15:14:09;;;;;;;26.27;10.13;;;13.30;99.90;;;;;;4971181;28;20151;-83
2021/04/11 15:16:37;;;;;;;32.58;7.38;;;13.30;99.90;;;;;;5067479;28;20123;-87
2021/04/11 15:19:23;;;;;;;33.83;7.22;;;13.40;99.90;;;;;;5067549;28;20115;-87
2021/04/11 15:22:34;;;;;;;28.40;7.43;;;13.40;99.90;;;;;;5065106;28;20028;-87
2021/04/11 15:25:06;;;;;;;31.95;6.07;;;13.30;99.90;;;;;;5063222;28;20025;-83
2021/04/11 15:28:01;;;;;;;24.20;5.78;;;13.30;99.90;;;;;;5079209;28;20036;-83
2021/04/11 15:30:36;;;;;;;28.95;6.85;;;13.30;99.90;;;;;;5071928;28;20024;-82
2021/04/11 15:33:10;;;;;;;26.50;5.85;;;13.30;99.90;;;;;;5076328;28;20095;-84
2021/04/11 15:36:12;;;;;;;35.90;6.78;;;13.30;99.90;;;;;;5085910;28;20040;-89
2021/04/11 15:38:41;;;;;;;19.42;6.03;;;13.30;99.90;;;;;;5058654;28;20043;-90
2021/04/11 15:41:33;;;;;;;36.92;7.50;;;13.30;99.90;;;;;;5073927;28;20059;-85
2021/04/11 15:44:07;;;;;;;30.77;7.10;;;13.30;99.90;;;;;;5080631;28;20086;-91
2021/04/11 15:46:56;;;;;;;34.88;6.82;;;13.30;99.90;;;;;;5075075;28;20121;-86
2021/04/11 15:49:34;;;;;;;34.45;8.27;;;13.20;99.90;;;;;;5081651;28;20024;-84
2021/04/11 18:14:00;;;;;;;20.38;6.47;;;12.60;99.90;;;;;;4784133;29;20638;-84
2021/04/11 18:31:42;;;;;;;;;;;;;;;;;;;;;
2021/04/11 21:07:17;;;;;;;17.42;4.68;;;12.70;99.90;;;;;;4826679;29;20442;-91
2021/04/11 21:13:55;;;;;;;;;;;;;;;;;;;;;
2021/04/11 21:27:23;;;;;;;;;;;;;;;;;;;;;
2021/04/11 21:41:36;;;;;;;;;;;;;;;;;;;;;
2021/04/11 21:45:03;;;;;;;13.13;5.18;;;12.80;99.90;;;;;;4828224;29;20026;-86
2021/04/11 22:01:49;;;;;;;21.07;5.93;;;13.00;99.90;;;;;;4876247;29;20574;-91
2021/04/11 22:19:35;;;;;;;;;;;;;;;;;;;;;
2021/04/11 22:22:59;;;;;;;25.73;6.95;;;13.20;99.90;;;;;;4786888;29;20567;-87
2021/04/11 22:26:07;;;;;;;27.90;7.35;;;13.20;99.90;;;;;;4787912;29;20071;-87
2021/04/11 22:29:30;;;;;;;;;;;;;;;;;;;;;
2021/04/11 22:32:50;;;;;;;24.13;7.85;;;13.10;99.90;;;;;;4809375;29;20030;-91
2021/04/11 22:36:22;;;;;;;21.52;6.75;;;13.20;99.90;;;;;;4877590;29;20048;-83
2021/04/11 22:46:25;;;;;;;24.25;6.57;;;13.20;99.90;;;;;;4859668;29;20136;-83
2021/04/11 22:52:53;;;;;;;16.25;5.57;;;13.20;99.90;;;;;;4847787;29;20073;-83
